createdAt,value
2019-01-25T00:01:13.264Z,56.17
2019-01-25T00:03:42.988Z,50.13
2019-01-25T00:06:12.839Z,55.93
2019-01-25T00:08:42.395Z,52.90
2019-01-25T00:11:12.112Z,55.27
2019-01-25T00:13:43.008Z,56.83
2019-01-25T00:16:12.556Z,52.13
2019-01-25T00:18:42.267Z,55.13
2019-01-25T00:21:12.000Z,51.07
2019-01-25T00:23:41.880Z,54.10
2019-01-25T00:26:11.715Z,60.57
2019-01-25T00:28:41.610Z,52.97
2019-01-25T00:31:11.208Z,54.43
2019-01-25T00:33:40.919Z,53.90
2019-01-25T00:36:10.753Z,53.60
2019-01-25T00:38:40.440Z,55.83
2019-01-25T00:41:10.468Z,57.53
2019-01-25T00:43:40.431Z,55.57
2019-01-25T00:46:09.891Z,60.87
2019-01-25T00:48:40.916Z,54.40
2019-01-25T00:51:10.583Z,57.20
2019-01-25T00:53:40.336Z,54.30
2019-01-25T00:56:10.237Z,59.90
2019-01-25T00:58:40.168Z,59.13
2019-01-25T01:01:10.171Z,53.63
2019-01-25T01:03:39.880Z,53.37
2019-01-25T01:06:09.731Z,54.07
2019-01-25T01:08:39.952Z,57.17
2019-01-25T01:11:10.431Z,59.33
2019-01-25T01:13:40.283Z,54.00
2019-01-25T01:16:11.495Z,55.50
2019-01-25T01:18:41.419Z,56.10
2019-01-25T01:21:11.652Z,54.43
2019-01-25T01:23:41.436Z,55.50
2019-01-25T01:26:11.456Z,54.77
2019-01-25T01:28:41.128Z,57.47
2019-01-25T01:31:11.132Z,55.87
2019-01-25T01:33:40.892Z,59.17
2019-01-25T01:36:10.633Z,55.97
2019-01-25T01:38:40.418Z,59.17
2019-01-25T01:41:10.320Z,59.83
2019-01-25T01:43:40.148Z,56.30
2019-01-25T01:46:09.622Z,53.90
2019-01-25T01:48:39.343Z,55.03
2019-01-25T01:51:10.000Z,55.40
2019-01-25T01:53:40.136Z,60.07
2019-01-25T01:56:09.821Z,53.93
2019-01-25T01:58:39.640Z,56.60
2019-01-25T02:01:09.328Z,57.47
2019-01-25T02:03:39.484Z,56.30
2019-01-25T02:06:09.409Z,61.80
2019-01-25T02:08:39.370Z,57.17
2019-01-25T02:11:09.229Z,56.87
2019-01-25T02:13:39.027Z,59.63
2019-01-25T02:16:08.704Z,59.47
2019-01-25T02:18:38.408Z,62.27
2019-01-25T02:21:08.244Z,59.70
2019-01-25T02:23:38.248Z,58.50
2019-01-25T02:26:08.056Z,58.30
2019-01-25T02:28:37.900Z,56.40
2019-01-25T02:31:07.464Z,62.70
2019-01-25T02:33:37.180Z,58.80
2019-01-25T02:36:07.439Z,61.73
2019-01-25T02:38:37.038Z,55.20
2019-01-25T02:41:06.657Z,63.40
2019-01-25T02:43:36.732Z,57.43
2019-01-25T02:46:06.393Z,53.77
2019-01-25T02:48:36.040Z,55.70
2019-01-25T02:51:05.988Z,61.03
2019-01-25T02:53:35.358Z,58.27
2019-01-25T02:56:05.565Z,55.00
2019-01-25T02:58:35.352Z,53.37
2019-01-25T03:01:05.212Z,53.57
2019-01-25T03:03:35.124Z,52.43
2019-01-25T03:06:05.255Z,51.10
2019-01-25T03:08:36.336Z,56.20
2019-01-25T03:11:05.911Z,53.47
2019-01-25T03:13:36.035Z,51.80
2019-01-25T03:16:05.625Z,49.67
2019-01-25T03:18:35.708Z,49.83
2019-01-25T03:21:05.713Z,53.20
2019-01-25T03:23:35.364Z,56.47
2019-01-25T03:26:05.029Z,50.50
2019-01-25T03:28:34.707Z,56.97
2019-01-25T03:31:04.891Z,50.93
2019-01-25T03:33:34.689Z,50.40
2019-01-25T03:36:04.542Z,51.13
2019-01-25T03:38:33.907Z,53.77
2019-01-25T03:41:03.387Z,52.13
2019-01-25T03:43:32.789Z,52.73
2019-01-25T03:46:03.000Z,55.27
2019-01-25T03:48:32.852Z,48.03
2019-01-25T03:51:02.667Z,48.77
2019-01-25T03:53:32.285Z,48.57
2019-01-25T03:56:02.555Z,50.93
2019-01-25T03:58:33.039Z,52.17
2019-01-25T04:01:02.553Z,48.40
2019-01-25T04:03:31.916Z,50.63
2019-01-25T04:06:01.508Z,49.20
2019-01-25T04:08:31.225Z,48.27
2019-01-25T04:11:03.774Z,49.80
2019-01-25T04:13:31.775Z,49.83
2019-01-25T04:16:01.619Z,49.70
2019-01-25T04:18:31.180Z,50.87
2019-01-25T04:21:00.976Z,50.30
2019-01-25T04:23:30.744Z,49.00
2019-01-25T04:26:00.355Z,54.27
2019-01-25T04:28:30.036Z,57.93
2019-01-25T04:31:00.129Z,53.40
2019-01-25T04:33:29.784Z,51.27
2019-01-25T04:35:59.249Z,49.20
2019-01-25T04:38:29.161Z,55.70
2019-01-25T04:40:58.648Z,52.73
2019-01-25T04:43:28.340Z,51.53
2019-01-25T04:45:58.297Z,54.97
2019-01-25T04:48:27.896Z,49.90
2019-01-25T04:50:57.301Z,60.60
2019-01-25T04:53:29.040Z,56.53
2019-01-25T04:56:00.196Z,54.63
2019-01-25T04:58:30.823Z,47.37
2019-01-25T05:01:07.823Z,53.33
2019-01-25T05:03:37.382Z,48.73
2019-01-25T05:06:07.107Z,55.03
2019-01-25T05:08:36.525Z,52.30
2019-01-25T05:11:08.746Z,53.30
2019-01-25T05:13:38.562Z,48.77
2019-01-25T05:16:10.769Z,40.70
2019-01-25T05:18:40.256Z,48.50
2019-01-25T05:21:10.347Z,56.13
2019-01-25T05:23:39.697Z,54.17
2019-01-25T05:26:09.184Z,54.60
2019-01-25T05:28:38.797Z,60.43
2019-01-25T05:31:08.251Z,51.03
2019-01-25T05:33:37.728Z,53.33
2019-01-25T05:36:07.622Z,54.40
2019-01-25T05:38:37.409Z,50.93
2019-01-25T05:41:06.796Z,58.10
2019-01-25T05:43:39.593Z,67.30
2019-01-25T05:46:09.947Z,59.50
2019-01-25T05:48:39.571Z,52.17
2019-01-25T05:51:09.344Z,52.33
2019-01-25T05:53:39.093Z,52.80
2019-01-25T05:56:08.916Z,46.87
2019-01-25T05:58:38.568Z,57.97
2019-01-25T06:01:09.140Z,54.13
2019-01-25T06:03:38.517Z,52.00
2019-01-25T06:06:07.981Z,52.70
2019-01-25T06:08:43.761Z,54.03
2019-01-25T06:11:08.892Z,55.03
2019-01-25T06:13:38.452Z,56.60
2019-01-25T06:16:08.504Z,55.60
2019-01-25T06:18:38.065Z,60.30
2019-01-25T06:21:07.562Z,56.53
2019-01-25T06:23:36.864Z,54.40
2019-01-25T06:26:06.867Z,54.50
2019-01-25T06:28:36.745Z,59.20
2019-01-25T06:31:06.201Z,56.93
2019-01-25T06:33:35.616Z,60.37
2019-01-25T06:36:10.363Z,55.27
2019-01-25T06:38:41.458Z,55.37
2019-01-25T06:41:11.212Z,58.73
2019-01-25T06:43:40.669Z,60.17
2019-01-25T06:46:12.936Z,58.87
2019-01-25T06:48:42.801Z,57.50
2019-01-25T06:51:12.158Z,52.20
2019-01-25T06:53:41.545Z,52.40
2019-01-25T06:56:11.697Z,55.63
2019-01-25T06:58:45.973Z,58.73
2019-01-25T07:01:18.081Z,66.17
2019-01-25T07:03:48.237Z,56.37
2019-01-25T07:06:17.632Z,61.93
2019-01-25T07:08:46.993Z,58.63
2019-01-25T07:11:19.286Z,56.20
2019-01-25T07:13:49.063Z,59.20
2019-01-25T07:16:18.525Z,59.57
2019-01-25T07:18:48.886Z,55.50
2019-01-25T07:21:19.504Z,55.97
2019-01-25T07:23:49.120Z,56.47
2019-01-25T07:26:19.045Z,54.83
2019-01-25T07:28:48.549Z,53.67
2019-01-25T07:31:18.036Z,55.90
2019-01-25T07:33:47.724Z,54.43
2019-01-25T07:36:17.363Z,65.63
2019-01-25T07:38:48.738Z,60.47
2019-01-25T07:41:18.626Z,56.70
2019-01-25T07:43:48.473Z,62.30
2019-01-25T07:46:18.273Z,63.13
2019-01-25T07:48:47.905Z,56.03
2019-01-25T07:51:17.377Z,53.63
2019-01-25T07:53:46.830Z,55.20
2019-01-25T07:56:16.634Z,60.87
2019-01-25T07:58:46.145Z,51.97
2019-01-25T08:01:15.533Z,57.23
2019-01-25T08:03:45.195Z,57.07
2019-01-25T08:06:15.389Z,59.73
2019-01-25T08:08:45.169Z,56.77
2019-01-25T08:11:14.527Z,59.43
2019-01-25T08:13:44.467Z,59.77
2019-01-25T08:16:15.196Z,61.33
2019-01-25T08:18:44.694Z,53.80
2019-01-25T08:21:14.062Z,54.97
2019-01-25T08:23:43.767Z,54.13
2019-01-25T08:26:13.497Z,56.40
2019-01-25T08:28:42.998Z,59.03
2019-01-25T08:31:12.358Z,58.27
2019-01-25T08:33:41.792Z,55.87
2019-01-25T08:36:11.587Z,58.10
2019-01-25T08:38:40.942Z,56.93
2019-01-25T08:41:10.314Z,52.37
2019-01-25T08:43:40.099Z,55.57
2019-01-25T08:46:09.502Z,51.77
2019-01-25T08:48:38.901Z,49.47
2019-01-25T08:51:08.719Z,49.20
2019-01-25T08:53:38.180Z,50.60
2019-01-25T08:56:07.677Z,49.43
2019-01-25T08:58:37.335Z,51.90
2019-01-25T09:01:06.780Z,48.30
2019-01-25T09:03:36.302Z,47.47
2019-01-25T09:06:06.173Z,44.27
2019-01-25T09:08:36.889Z,43.53
2019-01-25T09:11:06.401Z,40.97
2019-01-25T09:13:36.365Z,43.70
2019-01-25T09:16:05.959Z,47.27
2019-01-25T09:18:35.807Z,43.27
2019-01-25T09:21:05.508Z,43.33
2019-01-25T09:23:34.841Z,41.67
2019-01-25T09:26:04.661Z,41.73
2019-01-25T09:28:34.513Z,41.30
2019-01-25T09:31:03.977Z,41.10
2019-01-25T09:33:33.440Z,42.97
2019-01-25T09:36:03.016Z,43.70
2019-01-25T09:38:32.378Z,37.57
2019-01-25T09:41:01.735Z,41.23
2019-01-25T09:43:31.401Z,38.47
2019-01-25T09:46:01.436Z,39.33
2019-01-25T09:48:31.004Z,37.20
2019-01-25T09:51:01.099Z,36.53
2019-01-25T09:53:30.664Z,40.77
2019-01-25T09:56:00.321Z,39.97
2019-01-25T09:58:29.830Z,37.03
2019-01-25T10:01:06.972Z,39.17
2019-01-25T10:03:36.458Z,41.70
2019-01-25T10:06:06.023Z,42.43
2019-01-25T10:08:35.509Z,35.60
2019-01-25T10:11:05.869Z,32.97
2019-01-25T10:13:35.217Z,40.83
2019-01-25T10:16:05.080Z,38.57
2019-01-25T10:18:34.765Z,38.70
2019-01-25T10:21:04.225Z,37.37
2019-01-25T10:23:33.612Z,36.63
2019-01-25T10:26:02.967Z,38.67
2019-01-25T10:28:32.319Z,34.90
2019-01-25T10:31:02.024Z,41.47
2019-01-25T10:33:31.521Z,39.43
2019-01-25T10:36:00.981Z,39.23
2019-01-25T10:38:30.437Z,39.83
2019-01-25T10:40:59.863Z,36.33
2019-01-25T10:43:29.533Z,39.20
2019-01-25T10:45:58.984Z,38.90
2019-01-25T10:48:28.389Z,40.70
2019-01-25T10:50:57.738Z,36.50
2019-01-25T10:53:28.292Z,40.90
2019-01-25T10:55:57.702Z,43.73
2019-01-25T10:58:27.146Z,46.77
2019-01-25T11:00:56.665Z,44.10
2019-01-25T11:03:26.547Z,44.77
2019-01-25T11:05:56.049Z,49.10
2019-01-25T11:08:25.567Z,49.03
2019-01-25T11:10:55.438Z,49.47
2019-01-25T11:13:25.622Z,49.90
2019-01-25T11:15:55.024Z,53.17
2019-01-25T11:18:25.943Z,54.43
2019-01-25T11:20:55.733Z,55.47
2019-01-25T11:23:25.146Z,53.10
2019-01-25T11:25:55.379Z,49.70
2019-01-25T11:28:25.135Z,46.30
2019-01-25T11:30:54.725Z,45.63
2019-01-25T11:33:24.089Z,47.83
2019-01-25T11:35:53.450Z,50.50
2019-01-25T11:38:22.924Z,51.33
2019-01-25T11:40:52.680Z,52.20
2019-01-25T11:43:22.024Z,48.30
2019-01-25T11:45:54.359Z,44.17
2019-01-25T11:48:22.453Z,40.63
2019-01-25T11:50:51.812Z,40.97
2019-01-25T11:53:21.529Z,47.00
2019-01-25T11:55:50.881Z,47.77
2019-01-25T11:58:20.345Z,48.83
2019-01-25T12:00:50.334Z,47.50
2019-01-25T12:03:19.723Z,47.73
2019-01-25T12:05:49.047Z,46.33
2019-01-25T12:08:18.429Z,45.77
2019-01-25T12:10:48.272Z,49.93
2019-01-25T12:13:17.604Z,46.87
2019-01-25T12:15:47.921Z,48.17
2019-01-25T12:18:17.339Z,49.87
2019-01-25T12:20:46.810Z,50.47
2019-01-25T12:23:16.429Z,49.27
2019-01-25T12:25:45.897Z,52.27
2019-01-25T12:28:15.353Z,54.43
2019-01-25T12:30:44.845Z,78.60
2019-01-25T12:33:14.564Z,56.00
2019-01-25T12:35:44.317Z,53.57
2019-01-25T12:38:14.612Z,56.87
2019-01-25T12:40:44.282Z,57.40
2019-01-25T12:43:13.737Z,57.90
2019-01-25T12:45:51.463Z,58.87
2019-01-25T12:48:22.017Z,57.40
2019-01-25T12:50:57.565Z,59.63
2019-01-25T12:53:26.925Z,66.13
2019-01-25T12:55:56.318Z,67.30
2019-01-25T12:58:25.732Z,69.23
2019-01-25T13:00:55.432Z,72.63
2019-01-25T13:03:27.210Z,70.13
2019-01-25T13:05:56.594Z,67.23
2019-01-25T13:08:26.048Z,72.00
2019-01-25T13:10:55.512Z,70.87
2019-01-25T13:13:31.384Z,68.77
2019-01-25T13:15:55.929Z,68.60
2019-01-25T13:18:26.495Z,72.30
2019-01-25T13:20:55.901Z,65.13
2019-01-25T13:23:25.254Z,65.73
2019-01-25T13:25:54.716Z,70.33
2019-01-25T13:28:24.121Z,67.40
2019-01-25T13:30:53.577Z,65.40
2019-01-25T13:33:23.040Z,66.23
2019-01-25T13:35:52.813Z,67.33
2019-01-25T13:38:22.270Z,64.13
2019-01-25T13:40:51.721Z,66.83
2019-01-25T13:43:21.210Z,67.17
2019-01-25T13:45:54.388Z,74.40
2019-01-25T13:48:24.089Z,79.70
2019-01-25T13:50:53.615Z,79.93
2019-01-25T13:53:23.068Z,79.53
2019-01-25T13:55:52.533Z,79.47
2019-01-25T13:58:22.017Z,86.93
2019-01-25T14:00:51.658Z,87.17
2019-01-25T14:03:21.107Z,81.27
2019-01-25T14:05:50.604Z,83.83
2019-01-25T14:08:20.568Z,81.80
2019-01-25T14:11:17.840Z,83.37
2019-01-25T14:13:47.843Z,82.00
2019-01-25T14:16:18.702Z,76.83
2019-01-25T14:18:48.781Z,79.93
2019-01-25T14:21:53.205Z,87.07
2019-01-25T14:24:26.026Z,92.40
2019-01-25T14:26:58.976Z,87.30
2019-01-25T14:29:29.381Z,94.43
2019-01-25T14:32:00.581Z,89.20
2019-01-25T14:34:39.697Z,89.30
2019-01-25T14:37:12.466Z,94.67
2019-01-25T14:39:44.142Z,93.37
2019-01-25T14:42:19.982Z,85.57
2019-01-25T14:44:50.461Z,88.73
2019-01-25T14:47:20.317Z,87.47
2019-01-25T14:49:51.696Z,96.67
2019-01-25T14:52:23.020Z,90.20
2019-01-25T14:54:56.665Z,92.97
2019-01-25T14:57:27.836Z,91.87
2019-01-25T14:59:58.100Z,101.03
2019-01-25T15:02:29.126Z,100.70
2019-01-25T15:05:01.634Z,101.17
2019-01-25T15:07:31.450Z,114.47
2019-01-25T15:10:02.639Z,92.37
2019-01-25T15:12:35.040Z,99.60
2019-01-25T15:15:09.138Z,104.43
2019-01-25T15:17:40.897Z,97.57
2019-01-25T15:20:17.942Z,104.80
2019-01-25T15:22:48.936Z,103.70
2019-01-25T15:25:20.334Z,103.90
2019-01-25T15:27:51.714Z,103.93
2019-01-25T15:30:24.537Z,109.50
2019-01-25T15:32:55.293Z,106.20
2019-01-25T15:35:25.903Z,97.33
2019-01-25T15:37:59.735Z,103.77
2019-01-25T15:40:34.786Z,97.43
2019-01-25T15:43:05.733Z,99.03
2019-01-25T15:45:36.447Z,90.23
2019-01-25T15:48:06.063Z,93.47
2019-01-25T15:50:36.460Z,84.23
2019-01-25T15:53:07.568Z,80.17
2019-01-25T15:55:38.252Z,75.33
2019-01-25T15:58:08.057Z,75.13
2019-01-25T16:00:41.514Z,75.40
2019-01-25T16:03:11.460Z,73.73
2019-01-25T16:05:49.615Z,72.27
2019-01-25T16:08:19.304Z,75.27
2019-01-25T16:10:49.061Z,80.20
2019-01-25T16:13:18.462Z,77.93
2019-01-25T16:15:48.884Z,68.43
2019-01-25T16:18:18.754Z,75.33
2019-01-25T16:20:48.885Z,88.10
2019-01-25T16:23:18.606Z,79.07
2019-01-25T16:25:51.100Z,80.13
2019-01-25T16:28:22.658Z,86.97
2019-01-25T16:30:52.237Z,98.60
2019-01-25T16:33:21.599Z,82.23
2019-01-25T16:35:52.734Z,81.60
2019-01-25T16:38:22.901Z,73.87
2019-01-25T16:40:53.638Z,79.40
2019-01-25T16:43:23.894Z,75.23
2019-01-25T16:45:57.462Z,80.17
2019-01-25T16:48:28.153Z,79.53
2019-01-25T16:50:57.622Z,79.53
2019-01-25T16:53:27.127Z,75.63
2019-01-25T16:55:56.633Z,83.13
2019-01-25T16:58:26.353Z,76.27
2019-01-25T17:00:56.141Z,77.87
2019-01-25T17:03:25.645Z,77.40
2019-01-25T17:05:55.257Z,81.43
2019-01-25T17:08:24.626Z,82.83
2019-01-25T17:10:54.112Z,80.53
2019-01-25T17:13:23.570Z,82.23
2019-01-25T17:15:54.390Z,82.20
2019-01-25T17:18:23.872Z,78.33
2019-01-25T17:20:53.330Z,82.00
2019-01-25T17:23:22.802Z,80.17
2019-01-25T17:25:53.098Z,77.60
2019-01-25T17:28:54.799Z,77.60
2019-01-25T17:31:25.016Z,76.50
2019-01-25T17:34:00.679Z,73.37
2019-01-25T17:36:30.237Z,80.63
2019-01-25T17:39:00.297Z,75.30
2019-01-25T17:41:29.752Z,75.63
2019-01-25T17:43:59.289Z,84.27
2019-01-25T17:46:28.746Z,83.53
2019-01-25T17:48:58.101Z,76.57
2019-01-25T17:51:28.009Z,79.47
2019-01-25T17:53:57.494Z,73.80
2019-01-25T17:56:27.147Z,78.50
2019-01-25T17:58:56.617Z,77.90
2019-01-25T18:01:26.073Z,78.70
2019-01-25T18:03:55.466Z,76.13
2019-01-25T18:06:24.953Z,82.37
2019-01-25T18:08:54.408Z,75.07
2019-01-25T18:11:23.877Z,79.50
2019-01-25T18:13:53.401Z,82.27
2019-01-25T18:16:22.954Z,76.90
2019-01-25T18:18:52.413Z,75.57
2019-01-25T18:21:22.297Z,76.90
2019-01-25T18:23:51.772Z,73.20
2019-01-25T18:26:21.249Z,77.03
2019-01-25T18:28:53.529Z,77.80
2019-01-25T18:31:25.901Z,76.90
2019-01-25T18:33:55.682Z,78.43
2019-01-25T18:36:25.079Z,83.27
2019-01-25T18:38:54.534Z,75.40
2019-01-25T18:41:24.362Z,78.73
2019-01-25T18:43:53.861Z,77.70
2019-01-25T18:46:26.089Z,71.30
2019-01-25T18:48:55.939Z,78.00
2019-01-25T18:51:27.605Z,77.13
2019-01-25T18:53:57.004Z,76.17
2019-01-25T18:56:26.365Z,77.37
2019-01-25T18:58:56.348Z,78.23
2019-01-25T19:01:30.136Z,75.57
2019-01-25T19:04:02.390Z,79.43
2019-01-25T19:06:32.716Z,80.83
2019-01-25T19:09:02.531Z,79.03
2019-01-25T19:11:32.016Z,72.70
2019-01-25T19:14:01.450Z,76.97
2019-01-25T19:16:31.635Z,76.77
2019-01-25T19:19:01.125Z,75.17
2019-01-25T19:21:30.581Z,74.83
2019-01-25T19:24:00.327Z,76.20
2019-01-25T19:26:29.705Z,80.63
2019-01-25T19:28:59.054Z,80.33
2019-01-25T19:31:28.686Z,70.43
2019-01-25T19:33:58.985Z,77.77
2019-01-25T19:36:28.462Z,80.13
2019-01-25T19:38:57.912Z,79.27
2019-01-25T19:41:27.483Z,75.53
2019-01-25T19:43:59.313Z,80.27
2019-01-25T19:46:31.697Z,78.30
2019-01-25T19:49:01.057Z,78.50
2019-01-25T19:51:30.676Z,74.83
2019-01-25T19:54:00.078Z,76.60
2019-01-25T19:56:29.433Z,86.37
2019-01-25T19:58:58.893Z,80.73
2019-01-25T20:01:28.276Z,77.87
2019-01-25T20:03:58.037Z,83.13
2019-01-25T20:06:27.417Z,80.30
2019-01-25T20:08:56.941Z,79.17
2019-01-25T20:11:26.586Z,119.03
2019-01-25T20:13:56.280Z,78.40
2019-01-25T20:16:26.099Z,84.93
2019-01-25T20:18:55.541Z,86.77
2019-01-25T20:21:25.000Z,89.90
2019-01-25T20:23:54.548Z,91.87
2019-01-25T20:26:24.023Z,98.50
2019-01-25T20:28:55.702Z,99.37
2019-01-25T20:31:25.177Z,101.17
2019-01-25T20:33:54.533Z,87.30
2019-01-25T20:36:24.818Z,87.80
2019-01-25T20:38:54.213Z,93.43
2019-01-25T20:41:23.926Z,97.03
2019-01-25T20:43:53.397Z,102.60
2019-01-25T20:46:22.883Z,106.10
2019-01-25T20:48:52.261Z,107.03
2019-01-25T20:51:21.717Z,108.97
2019-01-25T20:53:51.223Z,108.43
2019-01-25T20:56:20.705Z,118.60
2019-01-25T20:58:50.406Z,112.63
2019-01-25T21:01:19.924Z,109.63
2019-01-25T21:03:49.369Z,123.27
2019-01-25T21:06:19.809Z,114.83
2019-01-25T21:08:49.401Z,113.40
2019-01-25T21:11:19.224Z,120.67
2019-01-25T21:13:48.685Z,109.23
2019-01-25T21:16:19.492Z,113.50
2019-01-25T21:18:49.098Z,116.10
2019-01-25T21:21:18.467Z,127.77
2019-01-25T21:23:48.241Z,134.23
2019-01-25T21:26:17.821Z,123.73
2019-01-25T21:28:50.181Z,125.67
2019-01-25T21:31:19.949Z,126.10
2019-01-25T21:33:49.313Z,120.50
2019-01-25T21:36:18.674Z,123.80
2019-01-25T21:38:49.901Z,124.97
2019-01-25T21:41:19.653Z,120.53
2019-01-25T21:43:49.151Z,121.10
2019-01-25T21:46:18.637Z,111.93
2019-01-25T21:48:48.551Z,113.50
2019-01-25T21:51:18.262Z,122.80
2019-01-25T21:53:48.354Z,128.13
2019-01-25T21:56:17.829Z,116.77
2019-01-25T21:58:47.818Z,115.63
2019-01-25T22:01:17.209Z,134.20
2019-01-25T22:03:46.830Z,117.43
2019-01-25T22:06:16.434Z,120.73
2019-01-25T22:08:45.993Z,134.70
2019-01-25T22:11:16.004Z,116.57
2019-01-25T22:13:52.650Z,112.87
2019-01-25T22:16:16.892Z,114.57
2019-01-25T22:18:46.333Z,115.70
2019-01-25T22:21:16.152Z,109.87
2019-01-25T22:23:46.176Z,100.67
2019-01-25T22:26:15.537Z,107.07
2019-01-25T22:28:45.424Z,114.93
2019-01-25T22:31:14.969Z,100.07
2019-01-25T22:33:44.661Z,107.37
2019-01-25T22:36:14.271Z,94.63
2019-01-25T22:38:43.901Z,101.30
2019-01-25T22:41:14.413Z,93.97
2019-01-25T22:43:44.308Z,94.13
2019-01-25T22:46:13.849Z,91.93
2019-01-25T22:48:43.522Z,95.73
2019-01-25T22:51:13.340Z,82.97
2019-01-25T22:53:42.824Z,86.53
2019-01-25T22:56:12.173Z,82.13
2019-01-25T22:58:42.053Z,91.20
2019-01-25T23:01:17.859Z,84.73
2019-01-25T23:03:53.180Z,86.63
2019-01-25T23:06:37.881Z,83.57
2019-01-25T23:09:13.396Z,91.03
2019-01-25T23:11:42.833Z,98.50
2019-01-25T23:14:12.296Z,99.77
2019-01-25T23:16:42.004Z,90.90
2019-01-25T23:19:11.389Z,90.83
2019-01-25T23:21:40.844Z,102.33
2019-01-25T23:24:11.237Z,92.67
2019-01-25T23:26:40.621Z,95.00
2019-01-25T23:29:10.075Z,98.37
2019-01-25T23:31:39.901Z,93.40
2019-01-25T23:34:09.898Z,95.17
2019-01-25T23:36:40.997Z,96.93
2019-01-25T23:39:11.080Z,95.00
2019-01-25T23:41:40.561Z,96.30
2019-01-25T23:44:11.422Z,98.40
2019-01-25T23:46:41.044Z,89.87
2019-01-25T23:49:10.937Z,92.10
2019-01-25T23:51:41.021Z,98.90
2019-01-25T23:54:10.853Z,104.80
2019-01-25T23:56:40.509Z,92.87
2019-01-25T23:59:10.668Z,92.07
